createdAt,value
2019-02-24T00:01:31.721Z,99.90
2019-02-24T00:04:39.291Z,99.90
2019-02-24T00:07:46.884Z,99.90
2019-02-24T00:10:55.374Z,99.90
2019-02-24T00:14:02.852Z,99.90
2019-02-24T00:17:10.322Z,99.90
2019-02-24T00:20:17.920Z,99.90
2019-02-24T00:23:25.448Z,99.90
2019-02-24T00:26:33.099Z,99.90
2019-02-24T00:29:41.683Z,99.90
2019-02-24T00:32:49.182Z,99.90
2019-02-24T00:35:56.740Z,99.90
2019-02-24T00:39:04.590Z,99.90
2019-02-24T00:42:13.643Z,99.90
2019-02-24T00:45:21.254Z,99.90
2019-02-24T00:48:28.851Z,99.90
2019-02-24T00:51:36.487Z,99.90
2019-02-24T00:54:44.506Z,99.90
2019-02-24T00:57:52.048Z,99.90
2019-02-24T01:00:59.735Z,99.90
2019-02-24T01:04:08.036Z,99.90
2019-02-24T01:07:15.632Z,99.90
2019-02-24T01:10:23.162Z,99.90
2019-02-24T01:13:30.710Z,99.90
2019-02-24T01:16:38.218Z,99.90
2019-02-24T01:19:46.882Z,99.90
2019-02-24T01:22:54.459Z,99.90
2019-02-24T01:26:02.110Z,99.90
2019-02-24T01:29:09.640Z,99.90
2019-02-24T01:32:17.232Z,99.90
2019-02-24T01:35:24.874Z,99.90
2019-02-24T01:38:32.491Z,99.90
2019-02-24T01:41:40.270Z,99.90
2019-02-24T01:44:47.858Z,99.90
2019-02-24T01:47:55.410Z,99.90
2019-02-24T01:51:04.096Z,99.90
2019-02-24T01:54:11.694Z,99.90
2019-02-24T01:57:19.170Z,99.90
2019-02-24T02:00:26.696Z,99.90
2019-02-24T02:03:34.368Z,99.90
2019-02-24T02:06:42.050Z,99.90
2019-02-24T02:09:49.908Z,99.90
2019-02-24T02:12:57.465Z,99.90
2019-02-24T02:16:06.318Z,99.90
2019-02-24T02:19:13.858Z,99.90
2019-02-24T02:22:21.514Z,99.90
2019-02-24T02:25:29.023Z,99.90
2019-02-24T02:28:43.777Z,99.90
2019-02-24T02:31:46.462Z,99.90
2019-02-24T02:34:54.024Z,99.90
2019-02-24T02:38:04.674Z,99.90
2019-02-24T02:41:12.282Z,99.90
2019-02-24T02:44:19.779Z,99.90
2019-02-24T02:47:27.254Z,99.90
2019-02-24T02:50:34.772Z,99.90
2019-02-24T02:53:42.291Z,99.90
2019-02-24T02:56:49.918Z,99.90
2019-02-24T02:59:57.487Z,99.90
2019-02-24T03:03:05.276Z,99.90
2019-02-24T03:06:38.236Z,99.90
2019-02-24T03:09:45.919Z,99.90
2019-02-24T03:12:53.690Z,99.90
2019-02-24T03:16:01.329Z,99.90
2019-02-24T03:19:10.153Z,99.90
2019-02-24T03:22:17.839Z,99.90
2019-02-24T03:25:25.368Z,99.90
2019-02-24T03:28:33.058Z,99.90
2019-02-24T03:31:40.633Z,99.90
2019-02-24T03:34:48.148Z,99.90
2019-02-24T03:37:55.632Z,99.90
2019-02-24T03:41:03.157Z,99.90
2019-02-24T03:44:10.633Z,99.90
2019-02-24T03:47:18.277Z,99.90
2019-02-24T03:50:25.848Z,99.90
2019-02-24T03:53:33.524Z,99.90
2019-02-24T03:56:41.128Z,99.90
2019-02-24T03:59:49.107Z,99.90
2019-02-24T04:02:56.663Z,99.90
2019-02-24T04:06:04.256Z,99.90
2019-02-24T04:09:11.796Z,99.90
2019-02-24T04:12:19.504Z,99.90
2019-02-24T04:15:27.114Z,99.90
2019-02-24T04:18:34.600Z,99.90
2019-02-24T04:21:42.113Z,99.90
2019-02-24T04:24:49.677Z,99.90
2019-02-24T04:27:57.241Z,99.90
2019-02-24T04:31:04.942Z,99.90
2019-02-24T04:34:12.534Z,99.90
2019-02-24T04:37:20.882Z,99.90
2019-02-24T04:40:28.429Z,99.90
2019-02-24T04:43:35.985Z,99.90
2019-02-24T04:46:43.529Z,99.90
2019-02-24T04:49:51.184Z,99.90
2019-02-24T04:52:58.752Z,99.90
2019-02-24T04:56:06.337Z,99.90
2019-02-24T04:59:13.910Z,99.90
2019-02-24T05:02:21.370Z,99.90
2019-02-24T05:05:28.979Z,99.90
2019-02-24T05:08:36.681Z,99.90
2019-02-24T05:11:44.147Z,99.90
2019-02-24T05:14:51.682Z,99.90
2019-02-24T05:17:59.224Z,99.90
2019-02-24T05:21:06.754Z,99.90
2019-02-24T05:24:14.967Z,99.90
2019-02-24T05:27:22.591Z,99.90
2019-02-24T05:30:31.233Z,99.90
2019-02-24T05:33:38.786Z,99.90
2019-02-24T05:36:46.465Z,99.90
2019-02-24T05:39:53.985Z,99.90
2019-02-24T05:43:01.510Z,99.90
2019-02-24T05:46:09.139Z,99.90
2019-02-24T05:49:16.677Z,99.90
2019-02-24T05:52:24.178Z,99.90
2019-02-24T05:55:31.745Z,99.90
2019-02-24T05:58:39.450Z,99.90
2019-02-24T06:01:47.023Z,99.90
2019-02-24T06:04:54.582Z,99.90
2019-02-24T06:08:03.830Z,99.90
2019-02-24T06:11:11.369Z,99.90
2019-02-24T06:14:18.855Z,99.90
2019-02-24T06:17:26.507Z,99.90
2019-02-24T06:20:34.025Z,99.90
2019-02-24T06:23:41.551Z,99.90
2019-02-24T06:26:49.158Z,99.90
2019-02-24T06:30:04.495Z,99.90
2019-02-24T06:33:05.867Z,99.90
2019-02-24T06:36:13.389Z,99.90
2019-02-24T06:39:20.897Z,99.90
2019-02-24T06:42:28.411Z,99.90
2019-02-24T06:45:36.000Z,99.90
2019-02-24T06:48:43.607Z,99.90
2019-02-24T06:51:51.180Z,99.90
2019-02-24T06:54:58.738Z,99.90
2019-02-24T06:58:06.337Z,99.90
2019-02-24T07:01:13.865Z,99.90
2019-02-24T07:04:21.470Z,99.90
2019-02-24T07:07:28.988Z,99.90
2019-02-24T07:10:36.491Z,99.90
2019-02-24T07:13:44.046Z,99.90
2019-02-24T07:16:51.607Z,99.90
2019-02-24T07:19:59.263Z,99.90
2019-02-24T07:23:07.234Z,99.90
2019-02-24T07:26:14.817Z,99.90
2019-02-24T07:29:22.531Z,99.90
2019-02-24T07:32:30.093Z,99.90
2019-02-24T07:35:37.633Z,99.90
2019-02-24T07:38:45.655Z,99.90
2019-02-24T07:41:53.238Z,99.90
2019-02-24T07:45:00.804Z,99.90
2019-02-24T07:48:08.409Z,99.90
2019-02-24T07:51:15.991Z,99.90
2019-02-24T07:54:23.513Z,99.90
2019-02-24T07:57:31.181Z,99.90
2019-02-24T08:00:38.673Z,99.90
2019-02-24T08:03:46.235Z,99.90
2019-02-24T08:06:53.719Z,99.90
2019-02-24T08:10:01.279Z,99.90
2019-02-24T08:13:08.955Z,99.90
2019-02-24T08:16:16.481Z,99.90
2019-02-24T08:19:23.991Z,99.90
2019-02-24T08:22:31.591Z,99.90
2019-02-24T08:25:39.227Z,99.90
2019-02-24T08:28:46.823Z,99.90
2019-02-24T08:31:54.371Z,99.90
2019-02-24T08:35:01.974Z,99.90
2019-02-24T08:38:09.801Z,99.90
2019-02-24T08:41:18.009Z,99.90
2019-02-24T08:44:26.705Z,99.90
2019-02-24T08:47:34.309Z,99.90
2019-02-24T08:50:42.027Z,99.90
2019-02-24T08:53:49.671Z,99.90
2019-02-24T08:56:57.262Z,99.90
2019-02-24T09:00:05.131Z,99.90
2019-02-24T09:03:14.249Z,99.90
2019-02-24T09:06:22.297Z,99.90
2019-02-24T09:09:29.951Z,99.90
2019-02-24T09:12:37.557Z,99.90
2019-02-24T09:15:45.126Z,99.90
2019-02-24T09:18:52.779Z,99.90
2019-02-24T09:22:00.311Z,99.90
2019-02-24T09:25:07.842Z,99.90
2019-02-24T09:28:15.419Z,99.90
2019-02-24T09:31:23.319Z,99.90
2019-02-24T09:34:30.859Z,99.90
2019-02-24T09:37:38.488Z,99.90
2019-02-24T09:40:46.071Z,99.90
2019-02-24T09:43:53.685Z,99.90
2019-02-24T09:47:01.184Z,99.90
2019-02-24T09:50:08.943Z,99.90
2019-02-24T09:53:16.587Z,99.90
2019-02-24T09:56:24.183Z,99.90
2019-02-24T09:59:31.673Z,99.90
2019-02-24T10:02:39.313Z,99.90
2019-02-24T10:05:46.821Z,99.90
2019-02-24T10:08:54.366Z,99.90
2019-02-24T10:12:01.937Z,99.90
2019-02-24T10:15:10.047Z,99.90
2019-02-24T10:18:17.642Z,99.90
2019-02-24T10:21:25.282Z,99.90
2019-02-24T10:24:32.782Z,99.90
2019-02-24T10:27:40.303Z,99.90
2019-02-24T10:30:49.253Z,99.90
2019-02-24T10:33:57.013Z,99.90
2019-02-24T10:37:04.527Z,99.90
2019-02-24T10:40:13.878Z,99.90
2019-02-24T10:43:21.688Z,99.90
2019-02-24T10:46:29.269Z,99.90
2019-02-24T10:49:36.810Z,99.90
2019-02-24T10:52:44.331Z,99.80
2019-02-24T10:55:52.984Z,99.90
2019-02-24T10:59:00.535Z,99.70
2019-02-24T11:02:08.148Z,99.30
2019-02-24T11:05:16.628Z,99.60
2019-02-24T11:08:24.205Z,99.10
2019-02-24T11:11:31.894Z,99.50
2019-02-24T11:14:40.489Z,99.20
2019-02-24T11:17:48.026Z,99.10
2019-02-24T11:20:55.629Z,98.80
2019-02-24T11:24:03.183Z,98.80
2019-02-24T11:27:10.782Z,98.20
2019-02-24T11:30:18.317Z,97.50
2019-02-24T11:33:25.909Z,97.10
2019-02-24T11:36:33.615Z,97.90
2019-02-24T11:39:41.310Z,98.10
2019-02-24T11:42:48.801Z,98.00
2019-02-24T11:45:56.490Z,98.50
2019-02-24T11:49:04.103Z,98.50
2019-02-24T11:52:11.685Z,97.50
2019-02-24T11:55:20.229Z,98.20
2019-02-24T11:58:27.852Z,98.20
2019-02-24T12:01:35.340Z,98.10
2019-02-24T12:04:42.989Z,97.60
2019-02-24T12:07:50.504Z,96.80
2019-02-24T12:10:59.093Z,96.50
2019-02-24T12:14:06.601Z,95.60
2019-02-24T12:17:14.109Z,94.20
2019-02-24T12:20:21.802Z,91.30
2019-02-24T12:23:29.297Z,90.90
2019-02-24T12:26:36.981Z,91.00
2019-02-24T12:29:44.637Z,89.30
2019-02-24T12:32:52.302Z,84.40
2019-02-24T12:35:59.897Z,82.10
2019-02-24T12:39:07.824Z,82.40
2019-02-24T12:42:16.448Z,82.70
2019-02-24T12:45:24.027Z,86.60
2019-02-24T12:48:31.625Z,91.60
2019-02-24T12:51:39.342Z,93.50
2019-02-24T12:54:46.842Z,92.70
2019-02-24T12:57:54.420Z,94.20
2019-02-24T13:01:01.939Z,92.20
2019-02-24T13:04:09.553Z,91.90
2019-02-24T13:07:17.544Z,90.70
2019-02-24T13:10:25.510Z,88.50
2019-02-24T13:13:33.177Z,90.20
2019-02-24T13:16:41.026Z,89.20
2019-02-24T13:19:48.720Z,89.50
2019-02-24T13:22:56.332Z,87.80
2019-02-24T13:26:04.020Z,88.20
2019-02-24T13:29:26.374Z,86.60
2019-02-24T13:32:36.264Z,88.60
2019-02-24T13:35:43.935Z,90.60
2019-02-24T13:38:51.488Z,91.10
2019-02-24T13:41:59.148Z,91.40
2019-02-24T13:45:08.560Z,92.30
2019-02-24T13:48:16.140Z,91.30
2019-02-24T13:51:25.045Z,93.50
2019-02-24T13:54:32.970Z,94.40
2019-02-24T13:57:41.293Z,94.40
2019-02-24T14:00:49.047Z,89.90
2019-02-24T14:03:56.695Z,90.80
2019-02-24T14:07:04.688Z,90.00
2019-02-24T14:10:13.200Z,85.80
2019-02-24T14:13:20.921Z,84.80
2019-02-24T14:16:28.514Z,82.40
2019-02-24T14:19:36.208Z,86.40
2019-02-24T14:22:44.140Z,81.10
2019-02-24T14:25:51.778Z,87.70
2019-02-24T14:29:00.008Z,79.10
2019-02-24T14:32:09.083Z,76.60
2019-02-24T14:35:16.948Z,68.10
2019-02-24T14:38:24.806Z,68.20
2019-02-24T14:41:32.563Z,69.50
2019-02-24T14:44:40.157Z,66.50
2019-02-24T14:47:50.631Z,60.90
2019-02-24T14:50:58.226Z,59.30
2019-02-24T14:54:05.914Z,59.50
2019-02-24T14:57:14.652Z,58.60
2019-02-24T15:00:23.459Z,57.20
2019-02-24T15:03:31.094Z,61.20
2019-02-24T15:06:39.540Z,56.10
2019-02-24T15:09:48.754Z,56.90
2019-02-24T15:12:56.383Z,56.60
2019-02-24T15:16:04.968Z,56.30
2019-02-24T15:19:12.526Z,58.00
2019-02-24T15:22:20.535Z,56.70
2019-02-24T15:25:28.156Z,55.60
2019-02-24T15:28:37.926Z,56.40
2019-02-24T15:31:46.737Z,55.70
2019-02-24T15:34:54.457Z,57.70
2019-02-24T15:38:02.093Z,57.20
2019-02-24T15:41:09.732Z,58.40
2019-02-24T15:44:17.240Z,58.80
2019-02-24T15:47:24.936Z,59.30
2019-02-24T15:50:32.742Z,59.70
2019-02-24T15:53:40.348Z,61.30
2019-02-24T15:56:47.935Z,64.00
2019-02-24T15:59:55.752Z,66.10
2019-02-24T16:03:03.455Z,69.40
2019-02-24T16:06:11.174Z,69.30
2019-02-24T16:09:19.733Z,70.40
2019-02-24T16:12:27.569Z,71.50
2019-02-24T16:15:35.236Z,75.60
2019-02-24T16:18:42.897Z,76.20
2019-02-24T16:21:50.916Z,75.80
2019-02-24T16:24:58.671Z,77.10
2019-02-24T16:28:06.512Z,79.70
2019-02-24T16:31:14.055Z,80.80
2019-02-24T16:34:21.738Z,85.50
2019-02-24T16:37:29.888Z,85.80
2019-02-24T16:40:37.696Z,87.70
2019-02-24T16:43:45.395Z,88.50
2019-02-24T16:46:53.099Z,90.00
2019-02-24T16:50:00.779Z,90.60
2019-02-24T16:53:08.518Z,90.80
2019-02-24T16:56:16.214Z,91.10
2019-02-24T16:59:24.950Z,90.70
2019-02-24T17:02:32.717Z,91.70
2019-02-24T17:05:40.407Z,91.90
2019-02-24T17:08:52.022Z,91.30
2019-02-24T17:11:57.388Z,92.00
2019-02-24T17:15:05.741Z,92.00
2019-02-24T17:18:13.604Z,92.70
2019-02-24T17:21:21.300Z,92.80
2019-02-24T17:24:28.953Z,92.40
2019-02-24T17:27:36.565Z,92.50
2019-02-24T17:30:44.236Z,93.00
2019-02-24T17:33:51.993Z,93.30
2019-02-24T17:36:59.673Z,92.80
2019-02-24T17:40:08.782Z,93.80
2019-02-24T17:43:16.356Z,93.20
2019-02-24T17:46:23.883Z,93.80
2019-02-24T17:49:31.573Z,93.70
2019-02-24T17:52:39.280Z,94.60
2019-02-24T17:55:46.899Z,93.80
2019-02-24T17:58:54.708Z,94.40
2019-02-24T18:02:02.398Z,94.90
2019-02-24T18:05:10.120Z,94.10
2019-02-24T18:08:17.760Z,94.40
2019-02-24T18:11:25.373Z,95.00
2019-02-24T18:14:32.990Z,94.00
2019-02-24T18:17:40.788Z,93.90
2019-02-24T18:20:48.554Z,94.00
2019-02-24T18:23:56.144Z,94.00
2019-02-24T18:27:03.821Z,93.80
2019-02-24T18:30:15.033Z,94.10
2019-02-24T18:33:22.926Z,94.50
2019-02-24T18:36:30.578Z,95.00
2019-02-24T18:39:38.921Z,94.50
2019-02-24T18:42:48.076Z,94.30
2019-02-24T18:45:55.745Z,94.50
2019-02-24T18:49:03.410Z,93.70
2019-02-24T18:52:11.030Z,94.50
2019-02-24T18:55:19.144Z,94.60
2019-02-24T18:58:26.957Z,94.60
2019-02-24T19:01:34.900Z,94.10
2019-02-24T19:04:42.650Z,94.10
2019-02-24T19:07:52.136Z,93.80
2019-02-24T19:11:00.015Z,93.60
2019-02-24T19:14:08.205Z,94.10
2019-02-24T19:17:16.062Z,93.60
2019-02-24T19:20:23.988Z,93.30
2019-02-24T19:23:31.679Z,93.10
2019-02-24T19:26:39.380Z,94.00
2019-02-24T19:29:47.305Z,94.10
2019-02-24T19:32:54.877Z,93.50
2019-02-24T19:36:02.811Z,93.00
2019-02-24T19:39:14.382Z,92.40
2019-02-24T19:42:21.970Z,92.70
2019-02-24T19:45:29.628Z,92.80
2019-02-24T19:48:41.983Z,93.00
2019-02-24T19:51:47.688Z,93.00
2019-02-24T19:54:55.586Z,93.50
2019-02-24T19:58:03.304Z,93.40
2019-02-24T20:01:11.066Z,92.80
2019-02-24T20:04:18.901Z,93.20
2019-02-24T20:07:26.639Z,93.50
2019-02-24T20:10:34.377Z,92.60
2019-02-24T20:13:42.145Z,92.50
2019-02-24T20:16:50.267Z,93.40
2019-02-24T20:19:58.069Z,92.90
2019-02-24T20:23:06.581Z,92.80
2019-02-24T20:26:21.597Z,92.60
2019-02-24T20:29:31.618Z,93.20
2019-02-24T20:32:48.612Z,93.60
2019-02-24T20:36:08.998Z,94.40
2019-02-24T20:39:22.573Z,94.70
2019-02-24T20:42:30.892Z,94.60
2019-02-24T20:45:38.710Z,95.10
2019-02-24T20:48:46.535Z,95.50
2019-02-24T20:51:54.896Z,96.60
2019-02-24T20:55:02.619Z,96.70
2019-02-24T20:58:10.282Z,97.10
2019-02-24T21:01:17.919Z,97.50
2019-02-24T21:04:25.603Z,97.90
2019-02-24T21:07:33.376Z,98.30
2019-02-24T21:10:41.014Z,98.40
2019-02-24T21:13:48.760Z,98.90
2019-02-24T21:16:56.479Z,98.70
2019-02-24T21:20:04.261Z,99.10
2019-02-24T21:23:11.958Z,98.80
2019-02-24T21:26:20.724Z,99.10
2019-02-24T21:29:28.505Z,99.00
2019-02-24T21:32:37.105Z,99.00
2019-02-24T21:35:46.505Z,98.90
2019-02-24T21:38:54.469Z,98.80
2019-02-24T21:42:02.162Z,99.10
2019-02-24T21:45:13.090Z,99.40
2019-02-24T21:48:21.099Z,99.70
2019-02-24T21:51:28.734Z,99.90
2019-02-24T21:54:36.899Z,99.90
2019-02-24T21:57:44.526Z,99.90
2019-02-24T22:00:52.123Z,99.90
2019-02-24T22:03:59.788Z,99.90
2019-02-24T22:07:08.531Z,99.70
2019-02-24T22:10:18.084Z,99.10
2019-02-24T22:13:25.742Z,98.80
2019-02-24T22:16:33.315Z,98.60
2019-02-24T22:19:41.008Z,98.20
2019-02-24T22:22:48.558Z,98.40
2019-02-24T22:25:56.135Z,98.40
2019-02-24T22:29:03.718Z,98.60
2019-02-24T22:32:11.323Z,98.30
2019-02-24T22:35:18.903Z,98.50
2019-02-24T22:38:26.559Z,98.50
2019-02-24T22:41:34.976Z,98.30
2019-02-24T22:44:42.611Z,98.40
2019-02-24T22:47:50.458Z,98.30
2019-02-24T22:50:58.044Z,98.20
2019-02-24T22:54:05.589Z,98.40
2019-02-24T22:57:13.192Z,98.20
2019-02-24T23:01:13.957Z,98.80
2019-02-24T23:04:22.764Z,98.60
2019-02-24T23:07:30.478Z,98.50
2019-02-24T23:10:38.111Z,98.70
2019-02-24T23:13:45.769Z,99.30
2019-02-24T23:16:53.611Z,99.80
2019-02-24T23:20:01.280Z,99.90
2019-02-24T23:23:10.485Z,99.90
2019-02-24T23:26:18.104Z,99.90
2019-02-24T23:29:26.686Z,99.90
2019-02-24T23:32:34.474Z,99.10
2019-02-24T23:35:42.105Z,98.90
2019-02-24T23:38:49.850Z,98.80
2019-02-24T23:41:57.587Z,98.70
2019-02-24T23:45:10.189Z,98.80
2019-02-24T23:48:14.697Z,98.40
2019-02-24T23:51:22.397Z,98.90
2019-02-24T23:54:29.924Z,98.80
2019-02-24T23:57:38.770Z,99.00
